Time;durP1;ratioP1;P1;durP2;ratioP2;P2;SDS_P1;SDS_P2;PMS_P1;PMS_P2;Temp;Humidity;BMP_temperature;BMP_pressure;BME280_temperature;BME280_humidity;BME280_pressure;Samples;Min_cycle;Max_cycle;Signal;HPM_P1;HPM_P2
2022/08/13 00:01:18;;;;;;;9.23;2.97;;;;;;;25.42;43.92;101351.31;4843697;29;20046;-59
2022/08/13 00:03:45;;;;;;;8.95;2.88;;;;;;;25.38;44.31;101355.78;4844326;29;20026;-58
2022/08/13 00:06:14;;;;;;;7.43;3.08;;;;;;;25.64;43.74;101356.25;4843841;29;20130;-57
2022/08/13 00:08:41;;;;;;;7.18;2.78;;;;;;;25.49;44.04;101340.84;4843760;29;20154;-62
2022/08/13 00:12:56;;;;;;;7.88;2.63;;;;;;;25.58;44.27;101345.66;4843888;29;20163;-61
2022/08/13 00:13:54;;;;;;;7.50;2.60;;;;;;;25.30;44.57;101352.88;4843888;29;20045;-61
2022/08/13 00:16:20;;;;;;;8.18;3.13;;;;;;;24.98;45.16;101344.13;4844091;29;20120;-61
2022/08/13 00:18:47;;;;;;;6.65;2.88;;;;;;;25.24;45.22;101349.38;4844023;29;20034;-61
2022/08/13 00:21:13;;;;;;;7.57;2.72;;;;;;;25.20;44.85;101353.78;4843529;29;20034;-61
2022/08/13 00:23:39;;;;;;;13.80;3.75;;;;;;;24.82;45.86;101356.38;4842997;29;20069;-63
2022/08/13 00:26:05;;;;;;;9.43;3.00;;;;;;;25.25;45.64;101348.25;4843708;29;20106;-63
2022/08/13 00:28:32;;;;;;;12.98;3.53;;;;;;;25.36;45.33;101340.72;4843872;29;20475;-63
2022/08/13 00:30:59;;;;;;;7.80;2.60;;;;;;;25.41;45.04;101332.44;4843766;29;20030;-64
2022/08/13 00:33:25;;;;;;;10.60;3.05;;;;;;;25.25;45.00;101335.38;4843435;29;20022;-64
2022/08/13 00:35:53;;;;;;;9.52;3.10;;;;;;;24.66;46.27;101336.53;4844195;29;20045;-64
2022/08/13 00:38:22;;;;;;;9.10;3.00;;;;;;;24.94;46.35;101323.13;4843692;29;20025;-63
2022/08/13 00:40:57;;;;;;;8.27;3.42;;;;;;;24.95;46.25;101322.81;4843445;29;20424;-64
2022/08/13 00:43:32;;;;;;;8.25;3.35;;;;;;;24.51;46.53;101319.44;4843236;29;20364;-64
2022/08/13 00:45:59;;;;;;;9.18;2.97;;;;;;;24.49;46.44;101319.75;4843191;29;20475;-64
2022/08/13 00:48:41;;;;;;;10.38;3.67;;;;;;;24.36;46.80;101320.38;4843287;29;20038;-64
2022/08/13 00:51:10;;;;;;;7.30;2.78;;;;;;;24.31;47.88;101326.69;4843114;29;20037;-63
2022/08/13 00:53:38;;;;;;;9.35;2.70;;;;;;;24.28;47.20;101327.28;4842982;29;20032;-63
2022/08/13 00:56:08;;;;;;;9.13;3.08;;;;;;;24.14;47.71;101326.28;4843055;29;20080;-65
2022/08/13 00:58:35;;;;;;;6.68;2.60;;;;;;;24.26;48.31;101321.25;4842966;29;20452;-62
2022/08/13 01:01:04;;;;;;;6.45;2.53;;;;;;;24.06;47.24;101324.97;4842934;29;20033;-61
2022/08/13 01:03:34;;;;;;;7.85;3.35;;;;;;;23.92;47.45;101318.50;4842929;29;20038;-67
2022/08/13 01:06:03;;;;;;;10.43;3.15;;;;;;;23.85;47.84;101323.47;4842947;29;20419;-64
2022/08/13 01:08:32;;;;;;;7.68;2.58;;;;;;;24.22;47.25;101314.75;4842923;29;20064;-64
2022/08/13 01:11:04;;;;;;;9.07;3.20;;;;;;;24.27;47.34;101314.69;4843034;29;20029;-65
2022/08/13 01:13:33;;;;;;;10.05;2.92;;;;;;;24.22;47.65;101320.22;4842854;29;20037;-64
2022/08/13 01:16:06;;;;;;;7.50;3.30;;;;;;;24.04;48.00;101312.69;4842856;29;20026;-64
2022/08/13 01:18:36;;;;;;;9.40;3.63;;;;;;;24.03;47.36;101309.13;4842779;29;20033;-65
2022/08/13 01:21:08;;;;;;;9.77;2.80;;;;;;;24.07;48.05;101314.84;4842771;29;20480;-64
2022/08/13 01:23:34;;;;;;;6.68;2.60;;;;;;;24.15;47.83;101306.88;4842496;29;20113;-64
2022/08/13 01:26:01;;;;;;;8.93;3.03;;;;;;;24.29;46.53;101308.94;4842940;29;20042;-64
2022/08/13 01:28:29;;;;;;;8.32;3.20;;;;;;;24.44;46.49;101308.84;4842167;29;20380;-64
2022/08/13 01:31:05;;;;;;;5.88;2.53;;;;;;;24.49;46.01;101306.88;4842571;29;20026;-63
2022/08/13 01:33:35;;;;;;;9.70;2.53;;;;;;;24.56;46.54;101305.72;4842859;29;20108;-64
2022/08/13 01:36:07;;;;;;;8.27;3.03;;;;;;;24.36;47.25;101310.25;4841807;29;20030;-64
2022/08/13 01:38:35;;;;;;;9.23;3.28;;;;;;;24.14;47.90;101305.22;4842318;29;20041;-65
2022/08/13 01:41:04;;;;;;;9.05;3.00;;;;;;;24.36;48.19;101307.53;4841852;29;20041;-66
2022/08/13 01:43:34;;;;;;;8.60;2.78;;;;;;;24.50;48.33;101304.94;4842594;29;20034;-65
2022/08/13 01:46:01;;;;;;;7.65;3.30;;;;;;;23.99;49.34;101310.81;4842135;29;20054;-65
2022/08/13 01:51:21;;;;;;;8.35;3.30;;;;;;;24.04;49.26;101309.94;4842227;29;20087;-64
2022/08/13 01:53:52;;;;;;;8.15;3.40;;;;;;;24.00;48.91;101314.38;4842789;29;20030;-64
2022/08/13 01:56:22;;;;;;;6.05;2.90;;;;;;;24.16;48.73;101316.69;4842937;29;20060;-65
2022/08/13 01:58:54;;;;;;;7.43;2.85;;;;;;;24.14;48.95;101313.41;4842245;29;20033;-63
2022/08/13 02:01:25;;;;;;;8.27;2.88;;;;;;;24.22;48.66;101317.47;4842028;29;20475;-63
2022/08/13 02:03:56;;;;;;;11.25;3.40;;;;;;;24.33;48.73;101324.50;4841903;29;20045;-64
2022/08/13 02:06:23;;;;;;;9.80;3.00;;;;;;;24.38;48.31;101326.41;4842203;29;20547;-63
2022/08/13 02:08:58;;;;;;;7.32;3.28;;;;;;;23.91;49.19;101327.81;4841951;29;20034;-64
2022/08/13 02:11:25;;;;;;;7.60;3.00;;;;;;;24.12;49.16;101323.03;4841925;29;20046;-65
2022/08/13 02:13:56;;;;;;;10.77;3.47;;;;;;;24.31;48.85;101328.59;4841690;29;20029;-63
2022/08/13 02:16:23;;;;;;;11.57;3.17;;;;;;;24.31;48.56;101326.69;4841804;29;20390;-62
2022/08/13 02:18:53;;;;;;;8.52;3.03;;;;;;;24.39;48.20;101334.31;4841670;29;20034;-63
2022/08/13 02:21:22;;;;;;;8.00;2.90;;;;;;;24.12;48.80;101325.75;4841534;29;20041;-63
2022/08/13 02:23:56;;;;;;;8.13;3.00;;;;;;;24.04;49.09;101338.13;4841828;29;20038;-63
2022/08/13 02:26:23;;;;;;;8.75;3.00;;;;;;;24.24;48.37;101334.41;4841846;29;20550;-63
2022/08/13 02:28:54;;;;;;;10.25;3.38;;;;;;;24.23;47.93;101332.78;4842038;29;20166;-63
2022/08/13 02:31:21;;;;;;;5.57;2.55;;;;;;;24.01;47.95;101343.34;4841691;29;20033;-63
2022/08/13 02:33:48;;;;;;;4.88;2.35;;;;;;;24.15;47.73;101347.06;4841897;29;20042;-63
2022/08/13 02:36:16;;;;;;;9.13;2.55;;;;;;;24.14;47.71;101345.41;4841813;29;20036;-63
2022/08/13 02:38:45;;;;;;;7.72;2.72;;;;;;;23.70;48.81;101349.78;4841658;29;20395;-63
2022/08/13 02:43:56;;;;;;;12.18;3.50;;;;;;;23.57;49.37;101349.56;4842226;29;20090;-63
2022/08/13 02:46:24;;;;;;;7.03;2.75;;;;;;;23.51;49.59;101346.03;4842785;29;20070;-62
2022/08/13 02:48:52;;;;;;;5.80;2.60;;;;;;;23.49;49.22;101344.69;4845535;29;20100;-63
2022/08/13 02:51:23;;;;;;;10.50;3.28;;;;;;;23.17;50.11;101345.91;4845126;29;20052;-63
2022/08/13 02:53:49;;;;;;;4.97;2.72;;;;;;;22.97;50.71;101348.69;4845488;29;20387;-63
2022/08/13 02:56:15;;;;;;;12.90;3.22;;;;;;;22.65;51.04;101345.16;4845248;29;20032;-62
2022/08/13 02:58:42;;;;;;;8.35;3.00;;;;;;;22.53;51.34;101351.97;4845187;29;20034;-62
2022/08/13 03:01:11;;;;;;;6.88;2.83;;;;;;;22.50;51.48;101350.63;4844919;29;20030;-62
2022/08/13 03:03:39;;;;;;;10.32;3.42;;;;;;;22.27;51.98;101354.72;4845009;29;20033;-63
2022/08/13 03:06:08;;;;;;;9.90;3.03;;;;;;;22.22;52.74;101354.72;4845181;29;20022;-61
2022/08/13 03:08:36;;;;;;;7.63;2.88;;;;;;;21.97;53.31;101362.81;4845297;29;20038;-61
2022/08/13 03:11:03;;;;;;;9.48;2.80;;;;;;;21.77;54.20;101356.25;4845262;29;20026;-63
2022/08/13 03:13:36;;;;;;;14.43;3.22;;;;;;;21.81;54.76;101353.78;4845061;29;20459;-62
2022/08/13 03:16:03;;;;;;;7.97;3.08;;;;;;;21.45;55.47;101359.13;4845142;29;20029;-62
2022/08/13 03:18:30;;;;;;;6.88;2.60;;;;;;;21.28;56.15;101350.28;4844859;29;20030;-62
2022/08/13 03:20:57;;;;;;;9.80;3.10;;;;;;;21.22;56.45;101352.19;4844513;29;20040;-62
2022/08/13 03:23:24;;;;;;;7.88;2.83;;;;;;;21.05;57.04;101356.97;4844819;29;20038;-62
2022/08/13 03:25:50;;;;;;;12.38;3.45;;;;;;;20.90;57.39;101354.16;4844862;29;20113;-62
2022/08/13 03:28:17;;;;;;;6.82;3.08;;;;;;;20.80;57.83;101357.63;4844907;29;20112;-62
2022/08/13 03:30:43;;;;;;;9.25;3.17;;;;;;;20.79;58.16;101358.72;4844621;29;20025;-62
2022/08/13 03:33:13;;;;;;;13.40;4.03;;;;;;;20.72;58.75;101358.13;4844875;29;20026;-62
2022/08/13 03:35:40;;;;;;;11.02;3.53;;;;;;;20.30;59.73;101365.06;4844741;29;20108;-62
2022/08/13 03:38:10;;;;;;;11.40;3.33;;;;;;;20.27;59.79;101359.34;4844696;29;20530;-62
2022/08/13 03:43:22;;;;;;;8.15;3.05;;;;;;;20.09;60.33;101363.25;4844831;29;20056;-62
2022/08/13 03:45:48;;;;;;;15.55;3.97;;;;;;;20.06;60.75;101365.66;4844239;29;20536;-62
2022/08/13 03:48:15;;;;;;;9.15;3.70;;;;;;;19.82;60.76;101368.66;4844360;29;20124;-62
2022/08/13 03:50:43;;;;;;;6.82;2.72;;;;;;;19.89;60.82;101368.50;4844294;29;20029;-62
2022/08/13 03:53:10;;;;;;;10.60;3.47;;;;;;;19.97;60.30;101366.13;4844340;29;20387;-62
2022/08/13 03:55:42;;;;;;;9.00;3.83;;;;;;;19.80;60.51;101361.84;4843957;29;20061;-62
2022/08/13 03:58:09;;;;;;;13.45;3.97;;;;;;;19.62;61.38;101357.59;4843302;29;20412;-62
2022/08/13 04:00:47;;;;;;;15.07;3.40;;;;;;;19.53;61.10;101357.16;4844115;29;20030;-62
2022/08/13 04:03:21;;;;;;;9.90;3.30;;;;;;;19.63;61.10;101357.31;4844092;29;20471;-62
2022/08/13 04:05:54;;;;;;;10.18;3.40;;;;;;;19.50;61.51;101360.41;4844328;29;20042;-62
2022/08/13 04:08:20;;;;;;;10.73;3.90;;;;;;;19.41;60.86;101357.28;4843954;29;20069;-62
2022/08/13 04:10:48;;;;;;;8.30;3.70;;;;;;;19.48;60.98;101365.25;4844104;29;20101;-62
2022/08/13 04:13:16;;;;;;;7.05;3.00;;;;;;;19.47;60.20;101366.31;4844212;29;20033;-62
2022/08/13 04:15:44;;;;;;;11.07;3.85;;;;;;;19.38;60.00;101363.25;4843840;29;20034;-62
2022/08/13 04:18:12;;;;;;;7.47;3.17;;;;;;;19.26;60.29;101366.03;4827336;29;20034;-62
2022/08/13 04:20:43;;;;;;;10.00;3.70;;;;;;;19.39;59.63;101359.44;4844054;29;20476;-62
2022/08/13 04:23:17;;;;;;;6.35;3.05;;;;;;;19.37;59.72;101364.28;4843798;29;20033;-62
2022/08/13 04:25:46;;;;;;;9.15;3.05;;;;;;;19.40;59.83;101373.84;4843881;29;20432;-62
2022/08/13 04:28:15;;;;;;;10.77;3.00;;;;;;;19.22;60.11;101367.63;4843792;29;20069;-62
2022/08/13 04:30:42;;;;;;;8.80;3.30;;;;;;;19.41;59.59;101379.00;4843603;29;20053;-62
2022/08/13 04:33:11;;;;;;;6.47;2.88;;;;;;;19.12;59.90;101381.06;4842385;29;20434;-62
2022/08/13 04:35:38;;;;;;;10.65;3.35;;;;;;;19.13;59.88;101381.88;4843273;29;20068;-62
2022/08/13 04:38:05;;;;;;;9.73;3.42;;;;;;;19.16;59.86;101384.94;4843559;29;20030;-62
2022/08/13 04:40:40;;;;;;;5.78;2.67;;;;;;;19.02;60.48;101380.91;4843468;29;20472;-63
2022/08/13 04:43:08;;;;;;;8.75;4.05;;;;;;;19.04;60.69;101386.91;4843385;29;20109;-62
2022/08/13 04:45:34;;;;;;;14.02;3.45;;;;;;;18.90;60.79;101388.31;4843255;29;20049;-62
2022/08/13 04:48:04;;;;;;;7.43;3.17;;;;;;;18.83;60.83;101398.53;4843293;29;20041;-62
2022/08/13 04:50:34;;;;;;;5.85;3.17;;;;;;;18.72;61.72;101394.84;4843260;29;20022;-62
2022/08/13 04:53:01;;;;;;;9.88;3.47;;;;;;;18.77;61.72;101386.78;4843479;29;20022;-62
2022/08/13 04:55:29;;;;;;;7.90;3.28;;;;;;;18.59;63.21;101392.41;4843162;29;20106;-62
2022/08/13 04:57:56;;;;;;;12.02;4.10;;;;;;;18.75;63.60;101404.34;4843121;29;20372;-62
2022/08/13 05:00:25;;;;;;;10.73;3.90;;;;;;;18.53;63.35;101398.81;4843337;29;20030;-62
2022/08/13 05:02:54;;;;;;;8.38;3.50;;;;;;;18.51;63.07;101390.94;4843062;29;20099;-62
2022/08/13 05:05:24;;;;;;;7.22;3.60;;;;;;;18.50;62.86;101393.91;4842990;29;20109;-62
2022/08/13 05:07:52;;;;;;;8.00;3.63;;;;;;;18.24;63.68;101387.19;4843303;29;20071;-62
2022/08/13 05:10:20;;;;;;;12.32;3.85;;;;;;;18.14;64.31;101394.06;4842673;29;20037;-62
2022/08/13 05:12:47;;;;;;;6.15;3.10;;;;;;;18.20;64.32;101397.69;4842941;29;20038;-62
2022/08/13 05:15:13;;;;;;;10.40;3.55;;;;;;;18.06;66.64;101402.59;4842826;29;20026;-62
2022/08/13 05:17:43;;;;;;;13.70;4.03;;;;;;;17.84;67.55;101407.84;4843075;29;20026;-62
2022/08/13 05:20:15;;;;;;;9.70;2.95;;;;;;;18.01;66.72;101412.50;4842597;29;20122;-62
2022/08/13 05:22:42;;;;;;;7.15;3.13;;;;;;;17.87;67.24;101411.94;4842742;29;20029;-62
2022/08/13 05:25:08;;;;;;;9.43;3.25;;;;;;;18.02;66.24;101409.53;4842725;29;20093;-62
2022/08/13 05:27:34;;;;;;;8.52;3.55;;;;;;;17.87;67.07;101411.94;4842612;29;20421;-62
2022/08/13 05:30:02;;;;;;;11.80;2.92;;;;;;;17.82;67.37;101407.28;4842640;29;20118;-62
2022/08/13 05:32:28;;;;;;;12.25;3.80;;;;;;;17.69;68.15;101402.91;4842676;29;20033;-62
2022/08/13 05:34:54;;;;;;;10.40;3.38;;;;;;;17.84;67.06;101412.44;4842783;29;20030;-62
2022/08/13 05:37:20;;;;;;;9.35;3.30;;;;;;;17.72;67.23;101412.47;4842880;29;20040;-62
2022/08/13 05:39:47;;;;;;;11.15;3.53;;;;;;;17.70;66.37;101414.56;4842735;29;20030;-62
2022/08/13 05:42:14;;;;;;;9.73;3.63;;;;;;;17.69;66.46;101410.22;4842746;29;20026;-62
2022/08/13 05:44:40;;;;;;;11.80;3.88;;;;;;;17.63;66.23;101401.16;4842741;29;20065;-62
2022/08/13 05:47:07;;;;;;;8.80;3.22;;;;;;;17.61;66.45;101403.28;4842662;29;20506;-62
2022/08/13 05:49:34;;;;;;;7.22;3.60;;;;;;;17.46;66.88;101397.56;4842840;29;20049;-62
2022/08/13 05:52:01;;;;;;;9.77;3.40;;;;;;;17.53;66.67;101395.53;4842337;29;20073;-62
2022/08/13 05:54:30;;;;;;;10.23;3.70;;;;;;;17.42;66.52;101394.47;4842760;29;20026;-62
2022/08/13 05:56:56;;;;;;;16.27;3.78;;;;;;;17.32;67.09;101404.25;4842604;29;20460;-62
2022/08/13 06:04:54;;;;;;;9.70;3.67;;;;;;;17.50;65.93;101406.03;4842297;29;20513;-62
2022/08/13 06:07:21;;;;;;;15.10;3.92;;;;;;;17.24;67.07;101385.69;4842144;29;20038;-62
2022/08/13 06:09:48;;;;;;;14.18;4.50;;;;;;;17.39;66.53;101394.97;4842133;29;20026;-62
2022/08/13 06:12:17;;;;;;;11.80;3.67;;;;;;;17.00;67.88;101396.53;4841922;29;20026;-62
2022/08/13 06:14:44;;;;;;;10.32;3.83;;;;;;;16.88;68.46;101387.59;4842271;29;20551;-62
2022/08/13 06:17:12;;;;;;;14.90;3.80;;;;;;;16.95;68.37;101404.53;4841964;29;20069;-62
2022/08/13 06:19:43;;;;;;;8.82;3.60;;;;;;;16.84;69.20;101397.22;4841784;29;20471;-62
2022/08/13 06:22:11;;;;;;;9.35;3.65;;;;;;;16.93;68.59;101394.97;4843776;29;20103;-62
2022/08/13 06:24:37;;;;;;;11.50;3.97;;;;;;;17.01;68.30;101392.78;4845980;29;20040;-62
2022/08/13 06:27:04;;;;;;;11.35;3.75;;;;;;;17.04;68.37;101392.28;4845620;29;20034;-62
2022/08/13 06:29:35;;;;;;;7.28;3.10;;;;;;;16.99;68.92;101396.75;4845523;29;20030;-62
2022/08/13 06:32:06;;;;;;;9.35;3.58;;;;;;;16.79;69.52;101394.41;4845567;29;20026;-61
2022/08/13 06:34:35;;;;;;;11.35;4.15;;;;;;;16.80;69.27;101390.63;4845617;29;20030;-62
2022/08/13 06:37:05;;;;;;;10.10;3.97;;;;;;;16.68;70.01;101396.00;4845745;29;20117;-62
2022/08/13 06:39:33;;;;;;;9.80;3.80;;;;;;;16.61;70.08;101390.72;4845523;29;20041;-62
2022/08/13 06:42:04;;;;;;;15.70;3.80;;;;;;;16.67;69.99;101394.34;4845530;29;20105;-62
2022/08/13 06:44:34;;;;;;;9.85;3.50;;;;;;;16.56;70.17;101397.88;4845284;29;20050;-62
2022/08/13 06:47:03;;;;;;;11.07;3.60;;;;;;;16.63;70.26;101402.09;4845069;29;20442;-62
2022/08/13 06:49:31;;;;;;;8.65;3.13;;;;;;;16.73;69.43;101398.03;4845463;29;20030;-62
2022/08/13 06:51:58;;;;;;;9.55;3.83;;;;;;;16.57;70.19;101396.81;4845443;29;20025;-62
2022/08/13 06:54:25;;;;;;;28.02;4.72;;;;;;;16.61;69.84;101400.69;4845302;29;20033;-62
2022/08/13 06:56:53;;;;;;;12.52;4.00;;;;;;;16.58;70.06;101403.84;4845271;29;20099;-63
2022/08/13 06:59:23;;;;;;;12.85;4.28;;;;;;;16.53;70.01;101412.66;4845181;29;20058;-63
2022/08/13 07:01:57;;;;;;;14.70;4.35;;;;;;;16.55;70.06;101418.66;4845539;29;20030;-62
2022/08/13 07:04:24;;;;;;;7.65;3.60;;;;;;;16.48;70.71;101420.63;4845145;29;20365;-62
2022/08/13 07:06:55;;;;;;;12.48;3.65;;;;;;;16.53;70.17;101409.94;4844918;29;20034;-63
2022/08/13 07:09:22;;;;;;;10.27;4.05;;;;;;;16.53;70.12;101409.94;4844881;29;20030;-61
2022/08/13 07:11:48;;;;;;;13.65;3.72;;;;;;;16.42;70.58;101407.22;4845044;29;20089;-61
2022/08/13 07:14:15;;;;;;;6.97;3.08;;;;;;;16.45;70.62;101407.59;4845110;29;20026;-60
2022/08/13 07:16:45;;;;;;;13.52;4.00;;;;;;;16.32;71.19;101413.16;4845078;29;20044;-60
2022/08/13 07:19:13;;;;;;;8.13;3.63;;;;;;;16.32;71.24;101416.72;4844772;29;20471;-60
2022/08/13 07:21:41;;;;;;;10.90;3.88;;;;;;;16.41;71.14;101419.91;4844697;29;20025;-61
2022/08/13 07:24:12;;;;;;;10.30;3.72;;;;;;;16.40;70.90;101412.88;4844712;29;20030;-61
2022/08/13 07:26:38;;;;;;;11.52;3.97;;;;;;;16.38;70.94;101414.97;4844900;29;20041;-60
2022/08/13 07:29:07;;;;;;;14.93;3.70;;;;;;;16.58;70.18;101409.25;4844583;29;20092;-61
2022/08/13 07:31:41;;;;;;;11.45;3.88;;;;;;;16.56;69.92;101423.00;4844551;29;20042;-61
2022/08/13 07:34:09;;;;;;;10.27;3.65;;;;;;;16.56;70.04;101419.50;4828464;29;20101;-61
2022/08/13 07:36:40;;;;;;;13.05;4.82;;;;;;;16.35;70.86;101426.22;4844514;29;20033;-61
2022/08/13 07:39:11;;;;;;;12.30;3.90;;;;;;;16.22;71.62;101431.84;4844417;29;20104;-61
2022/08/13 07:41:45;;;;;;;12.85;3.97;;;;;;;16.37;70.69;101429.53;4844977;29;20061;-61
2022/08/13 07:44:22;;;;;;;13.68;4.13;;;;;;;16.34;71.07;101432.69;4844106;29;20118;-60
2022/08/13 07:46:51;;;;;;;13.18;5.25;;;;;;;16.32;71.06;101435.63;4844325;29;20152;-61
2022/08/13 07:49:19;;;;;;;12.80;4.53;;;;;;;16.41;70.59;101429.91;4844333;29;20441;-61
2022/08/13 07:51:46;;;;;;;14.10;4.63;;;;;;;16.23;71.13;101428.06;4844064;29;20079;-61
2022/08/13 07:54:13;;;;;;;14.00;4.25;;;;;;;16.33;71.14;101425.66;4844063;29;20522;-61
2022/08/13 07:56:40;;;;;;;11.68;4.35;;;;;;;16.27;71.39;101430.09;4844442;29;20038;-61
2022/08/13 07:59:12;;;;;;;17.50;4.57;;;;;;;16.30;71.44;101431.50;4844076;29;20106;-61
2022/08/13 08:01:46;;;;;;;14.57;4.68;;;;;;;16.30;71.16;101431.50;4844436;29;20112;-61
2022/08/13 08:04:15;;;;;;;12.52;4.00;;;;;;;16.15;71.33;101426.50;4844149;29;20473;-61
2022/08/13 08:06:45;;;;;;;12.85;3.97;;;;;;;16.08;71.82;101420.38;4846092;29;20475;-61
2022/08/13 08:09:17;;;;;;;12.65;4.35;;;;;;;16.14;71.89;101424.03;4830094;29;20034;-61
2022/08/13 08:14:30;;;;;;;16.88;4.50;;;;;;;16.29;71.51;101416.34;4844819;29;20033;-61
2022/08/13 08:16:59;;;;;;;9.68;4.15;;;;;;;16.32;70.81;101421.28;4843761;29;20045;-61
2022/08/13 08:19:27;;;;;;;14.82;4.20;;;;;;;16.23;71.76;101428.91;4843752;29;20034;-61
2022/08/13 08:21:58;;;;;;;13.25;5.00;;;;;;;16.15;72.33;101428.38;4843742;29;20349;-61
2022/08/13 08:24:30;;;;;;;15.95;4.32;;;;;;;16.07;72.81;101426.84;4843475;29;20032;-61
2022/08/13 08:26:58;;;;;;;11.13;4.20;;;;;;;16.07;73.37;101429.53;4843518;29;20112;-61
2022/08/13 08:29:25;;;;;;;13.45;4.00;;;;;;;16.19;72.88;101426.88;4843509;29;20030;-60
2022/08/13 08:31:52;;;;;;;13.43;3.95;;;;;;;16.14;73.44;101427.56;4827203;29;20376;-60
2022/08/13 08:34:18;;;;;;;9.70;3.90;;;;;;;16.16;73.84;101425.47;4843484;29;20032;-62
2022/08/13 08:36:45;;;;;;;18.20;4.50;;;;;;;16.14;73.72;101414.06;4843251;29;20030;-61
2022/08/13 08:44:43;;;;;;;13.85;4.45;;;;;;;16.13;73.46;101417.81;4843329;29;19927;-61
2022/08/13 08:47:11;;;;;;;9.57;3.80;;;;;;;16.07;73.62;101422.25;4843519;29;20026;-61
2022/08/13 08:49:39;;;;;;;15.68;4.57;;;;;;;16.05;73.58;101423.53;4843736;29;20518;-61
2022/08/13 08:52:06;;;;;;;11.63;4.47;;;;;;;15.95;73.93;101420.56;4843238;29;20037;-61
2022/08/13 08:54:33;;;;;;;10.77;4.07;;;;;;;15.89;74.30;101411.50;4843261;29;20094;-61
2022/08/13 08:56:59;;;;;;;12.45;4.00;;;;;;;15.98;74.07;101407.41;4843166;29;20105;-61
2022/08/13 08:59:28;;;;;;;11.23;4.18;;;;;;;15.99;74.00;101400.13;4842970;29;20032;-61
2022/08/13 09:01:56;;;;;;;8.98;3.50;;;;;;;16.03;73.95;101412.94;4843030;29;20029;-61
2022/08/13 09:04:28;;;;;;;12.32;4.50;;;;;;;16.07;73.62;101408.75;4842966;29;20105;-61
2022/08/13 09:06:58;;;;;;;10.63;3.92;;;;;;;15.84;74.51;101414.03;4842976;29;20022;-61
2022/08/13 09:09:26;;;;;;;12.38;3.95;;;;;;;15.90;74.35;101413.13;4842840;29;20030;-61
2022/08/13 09:11:55;;;;;;;14.13;3.72;;;;;;;15.83;75.02;101417.81;4826532;29;20037;-61
2022/08/13 09:14:27;;;;;;;14.23;4.10;;;;;;;15.86;74.72;101411.13;4842971;29;20038;-61
2022/08/13 09:16:55;;;;;;;11.15;4.20;;;;;;;15.90;74.91;101418.53;4842744;29;20117;-61
2022/08/13 09:19:23;;;;;;;12.18;3.90;;;;;;;15.65;75.59;101423.19;4842660;29;20113;-61
2022/08/13 09:21:50;;;;;;;11.07;4.18;;;;;;;15.66;76.06;101419.47;4842642;29;20034;-61
2022/08/13 09:24:16;;;;;;;11.45;4.13;;;;;;;15.72;75.57;101419.38;4842557;29;20026;-61
2022/08/13 09:26:47;;;;;;;7.82;3.65;;;;;;;15.72;75.25;101413.16;4842841;29;20441;-61
2022/08/13 09:29:19;;;;;;;12.20;4.30;;;;;;;15.78;74.73;101417.66;4842559;29;20100;-61
2022/08/13 09:31:48;;;;;;;18.88;4.55;;;;;;;15.87;74.54;101418.16;4842839;29;20041;-61
2022/08/13 09:34:15;;;;;;;12.85;4.32;;;;;;;15.89;74.22;101422.28;4842740;29;20034;-61
2022/08/13 09:36:42;;;;;;;13.52;4.50;;;;;;;15.50;75.75;101418.16;4842334;29;20037;-61
2022/08/13 09:39:09;;;;;;;16.25;5.00;;;;;;;15.75;74.76;101421.63;4842529;29;20034;-61
2022/08/13 09:41:49;;;;;;;14.45;3.90;;;;;;;15.72;74.51;101421.25;4842317;29;20034;-61
2022/08/13 09:44:17;;;;;;;12.00;4.65;;;;;;;15.74;73.99;101416.44;4842307;29;20052;-62
2022/08/13 09:46:45;;;;;;;7.43;3.92;;;;;;;15.86;73.58;101416.50;4842212;29;20029;-61
2022/08/13 09:49:11;;;;;;;15.70;4.38;;;;;;;15.64;74.03;101424.25;4842900;29;20444;-62
2022/08/13 09:51:38;;;;;;;14.10;4.60;;;;;;;15.86;73.57;101414.63;4842533;29;20525;-61
2022/08/13 09:54:08;;;;;;;18.90;4.32;;;;;;;15.55;74.72;101413.72;4842549;29;20066;-62
2022/08/13 09:56:38;;;;;;;16.35;4.63;;;;;;;15.53;74.90;101410.41;4841632;29;20368;-61
2022/08/13 09:59:06;;;;;;;10.75;3.80;;;;;;;15.52;74.80;101400.69;4842223;29;20026;-61
2022/08/13 10:01:34;;;;;;;11.93;4.03;;;;;;;15.51;74.61;101412.53;4842240;29;20383;-61
2022/08/13 10:04:00;;;;;;;12.13;4.05;;;;;;;15.55;74.38;101408.34;4842516;29;20029;-61
2022/08/13 10:06:28;;;;;;;16.00;4.53;;;;;;;15.42;74.93;101411.16;4842016;29;20056;-61
2022/08/13 10:08:55;;;;;;;15.95;4.07;;;;;;;15.28;75.70;101405.09;4842647;29;20543;-61
2022/08/13 10:11:23;;;;;;;14.43;4.35;;;;;;;15.40;75.18;101407.88;4842045;29;20049;-62
2022/08/13 10:13:49;;;;;;;11.30;3.85;;;;;;;15.46;74.87;101401.59;4842115;29;20434;-61
2022/08/13 10:16:16;;;;;;;14.32;4.30;;;;;;;15.37;75.09;101408.31;4841964;29;20036;-62
2022/08/13 10:18:43;;;;;;;16.00;4.07;;;;;;;15.41;75.02;101406.81;4842172;29;20034;-62
2022/08/13 10:21:09;;;;;;;11.25;3.72;;;;;;;15.42;74.90;101405.78;4842003;29;20050;-61
2022/08/13 10:23:35;;;;;;;8.98;4.25;;;;;;;15.24;75.92;101414.69;4842258;29;20034;-62
2022/08/13 10:26:02;;;;;;;13.75;4.45;;;;;;;15.28;75.86;101409.66;4842387;29;20053;-62
2022/08/13 10:28:34;;;;;;;13.07;4.25;;;;;;;15.26;75.75;101404.47;4841844;29;20030;-61
2022/08/13 10:31:02;;;;;;;13.60;4.97;;;;;;;15.30;75.64;101408.38;4841902;29;20038;-62
2022/08/13 10:33:29;;;;;;;9.18;4.00;;;;;;;15.34;75.56;101408.78;4842309;29;20113;-62
2022/08/13 10:35:55;;;;;;;13.73;4.80;;;;;;;15.25;76.22;101407.41;4841930;29;20064;-62
2022/08/13 10:38:26;;;;;;;16.08;4.60;;;;;;;15.35;75.80;101407.72;4842217;29;20038;-62
2022/08/13 10:41:07;;;;;;;11.18;4.72;;;;;;;15.46;75.06;101408.84;4842423;29;20041;-61
2022/08/13 10:43:40;;;;;;;16.10;4.50;;;;;;;15.29;75.92;101403.22;4842276;29;20368;-62
2022/08/13 10:46:11;;;;;;;16.00;4.65;;;;;;;15.37;75.52;101404.78;4842091;29;20056;-62
2022/08/13 10:48:38;;;;;;;12.25;4.10;;;;;;;15.37;75.47;101407.50;4842455;29;20540;-62
2022/08/13 10:51:05;;;;;;;12.57;4.55;;;;;;;15.36;76.21;101413.94;4841656;29;20037;-62
2022/08/13 10:56:17;;;;;;;8.85;4.22;;;;;;;15.41;75.76;101404.13;4842231;29;20037;-62
2022/08/13 10:58:44;;;;;;;17.80;5.20;;;;;;;15.29;76.08;101406.75;4841819;29;20034;-62
2022/08/13 11:01:11;;;;;;;17.20;5.00;;;;;;;15.28;76.18;101407.78;4841368;29;20116;-61
2022/08/13 11:03:38;;;;;;;9.55;4.25;;;;;;;15.25;76.48;101410.09;4841775;29;20030;-62
2022/08/13 11:06:07;;;;;;;13.85;4.40;;;;;;;15.23;76.32;101409.50;4841565;29;20125;-61
2022/08/13 11:08:37;;;;;;;20.02;4.75;;;;;;;15.26;76.53;101407.19;4843758;29;20034;-61
2022/08/13 11:11:08;;;;;;;12.52;4.57;;;;;;;15.38;75.59;101407.28;4845103;29;20033;-61
2022/08/13 11:13:39;;;;;;;12.65;4.22;;;;;;;15.30;75.75;101408.38;4844879;29;20030;-62
2022/08/13 11:16:52;;;;;;;16.23;4.90;;;;;;;15.22;75.95;101403.28;4844928;29;20037;-62
2022/08/13 11:18:54;;;;;;;17.50;4.57;;;;;;;15.25;75.74;101402.84;4845187;29;20470;-62
2022/08/13 11:21:24;;;;;;;14.63;4.45;;;;;;;15.24;75.66;101400.38;4844886;29;20026;-62
2022/08/13 11:23:51;;;;;;;14.57;3.95;;;;;;;15.05;76.20;101404.91;4844689;29;20417;-62
2022/08/13 11:26:17;;;;;;;20.75;5.32;;;;;;;15.22;75.49;101410.56;4844941;29;20042;-62
2022/08/13 11:28:44;;;;;;;18.90;5.10;;;;;;;15.21;75.26;101406.19;4844709;29;20059;-62
2022/08/13 11:31:10;;;;;;;12.40;4.20;;;;;;;15.34;74.81;101397.97;4844769;29;20527;-62
2022/08/13 11:33:36;;;;;;;11.05;4.30;;;;;;;15.30;75.03;101402.16;4828113;29;20484;-61
2022/08/13 11:36:03;;;;;;;13.05;4.13;;;;;;;15.24;75.69;101398.50;4844390;29;20491;-62
2022/08/13 11:38:29;;;;;;;12.77;4.38;;;;;;;15.30;75.32;101396.78;4844519;29;20026;-62
2022/08/13 11:40:58;;;;;;;13.90;4.85;;;;;;;15.29;75.30;101392.44;4844823;29;20034;-62
2022/08/13 11:43:28;;;;;;;15.70;4.50;;;;;;;15.08;76.56;101401.75;4844576;29;20546;-62
2022/08/13 11:45:56;;;;;;;15.43;5.03;;;;;;;15.18;76.42;101409.34;4844288;29;20110;-62
2022/08/13 11:48:23;;;;;;;17.92;4.25;;;;;;;15.23;76.33;101406.81;4844296;29;20117;-62
2022/08/13 11:50:51;;;;;;;14.88;4.47;;;;;;;15.19;76.42;101406.44;4844319;29;20034;-62
2022/08/13 11:53:18;;;;;;;14.02;4.03;;;;;;;15.15;76.72;101412.47;4844481;29;20414;-62